Time;durP1;ratioP1;P1;durP2;ratioP2;P2;SDS_P1;SDS_P2;PMS_P1;PMS_P2;Temp;Humidity;BMP_temperature;BMP_pressure;BME280_temperature;BME280_humidity;BME280_pressure;Samples;Min_cycle;Max_cycle;Signal;HPM_P1;HPM_P2
2022/10/13 00:01:19;;;;;;;13.80;8.23;;;;;;;13.74;nan;100019.22;4998685;28;20199;-76
2022/10/13 00:03:46;;;;;;;19.15;8.77;;;;;;;13.73;nan;100014.88;5001063;28;20218;-76
2022/10/13 00:06:20;;;;;;;12.30;8.40;;;;;;;13.72;nan;100021.13;5001104;28;20214;-74
2022/10/13 00:08:46;;;;;;;9.25;6.80;;;;;;;13.67;nan;100020.59;4997636;28;20207;-76
2022/10/13 00:11:15;;;;;;;13.63;7.13;;;;;;;13.58;nan;100018.59;4998634;28;20584;-76
2022/10/13 00:13:41;;;;;;;6.80;5.82;;;;;;;13.50;nan;100017.34;4998684;28;20496;-76
2022/10/13 00:16:08;;;;;;;6.60;5.63;;;;;;;13.42;nan;100017.03;4999795;28;20555;-74
2022/10/13 00:18:33;;;;;;;11.05;6.30;;;;;;;13.36;nan;100020.06;4995698;28;20970;-76
2022/10/13 00:20:58;;;;;;;12.13;5.37;;;;;;;13.34;nan;100023.75;4995649;28;20294;-76
2022/10/13 00:23:24;;;;;;;6.03;4.80;;;;;;;13.29;nan;100013.53;4996477;28;20216;-76
2022/10/13 00:25:50;;;;;;;5.67;4.90;;;;;;;13.23;nan;100014.78;4998697;28;20650;-76
2022/10/13 00:28:18;;;;;;;5.77;5.27;;;;;;;13.19;nan;100020.34;4998924;28;20249;-77
2022/10/13 00:30:44;;;;;;;5.82;4.88;;;;;;;13.11;nan;100020.03;4992761;28;20213;-74
2022/10/13 00:33:11;;;;;;;6.32;5.72;;;;;;;13.06;nan;100020.34;4999844;28;20203;-74
2022/10/13 00:35:41;;;;;;;8.88;5.72;;;;;;;13.05;nan;100022.13;4995470;28;20211;-74
2022/10/13 00:38:07;;;;;;;7.10;6.40;;;;;;;13.06;nan;100026.44;5000052;28;20277;-74
2022/10/13 00:40:32;;;;;;;10.50;6.90;;;;;;;13.11;nan;100023.50;5000317;28;20211;-74
2022/10/13 00:42:58;;;;;;;7.43;5.90;;;;;;;13.16;nan;100031.13;4998289;28;20221;-74
2022/10/13 00:45:26;;;;;;;6.50;5.37;;;;;;;13.20;nan;100024.66;4999657;28;20207;-74
2022/10/13 00:47:59;;;;;;;7.00;6.25;;;;;;;13.25;nan;100019.94;4998040;28;20279;-74
2022/10/13 00:50:30;;;;;;;7.40;6.65;;;;;;;13.28;nan;100025.03;4999672;28;20210;-74
2022/10/13 00:52:58;;;;;;;9.20;7.10;;;;;;;13.28;nan;100017.97;4999705;28;20576;-74
2022/10/13 00:55:29;;;;;;;8.40;7.40;;;;;;;13.30;nan;100012.59;4998063;28;20810;-74
2022/10/13 00:57:59;;;;;;;7.40;6.70;;;;;;;13.30;nan;100017.88;5000082;28;20341;-74
2022/10/13 01:00:29;;;;;;;10.48;8.48;;;;;;;13.28;nan;100010.06;4999234;28;20207;-74
2022/10/13 01:02:54;;;;;;;8.88;7.53;;;;;;;13.28;nan;100001.28;4997246;28;20205;-74
2022/10/13 01:05:20;;;;;;;13.80;7.60;;;;;;;13.28;nan;100010.06;4997191;28;20207;-74
2022/10/13 01:07:50;;;;;;;9.80;8.07;;;;;;;13.30;nan;100007.31;4996968;28;20703;-74
2022/10/13 01:10:26;;;;;;;12.95;8.63;;;;;;;13.34;nan;100007.94;4997049;28;20201;-74
2022/10/13 01:13:10;;;;;;;14.07;9.13;;;;;;;13.33;nan;100004.44;4999882;28;20221;-74
2022/10/13 01:15:44;;;;;;;13.23;9.18;;;;;;;13.34;nan;100007.94;4997539;28;20298;-74
2022/10/13 01:18:21;;;;;;;12.55;8.90;;;;;;;13.39;nan;100005.81;4998076;28;20234;-74
2022/10/13 01:21:05;;;;;;;11.77;8.73;;;;;;;13.43;nan;100017.88;4995096;28;20278;-74
2022/10/13 01:24:07;;;;;;;9.63;7.68;;;;;;;13.48;nan;100013.97;4998339;28;20239;-74
2022/10/13 01:27:04;;;;;;;9.63;7.10;;;;;;;13.50;nan;100004.16;4999744;28;20296;-74
2022/10/13 01:29:49;;;;;;;9.20;8.30;;;;;;;13.53;nan;100010.16;4999540;28;20224;-74
2022/10/13 01:32:30;;;;;;;9.90;8.45;;;;;;;13.54;nan;100004.78;4997793;28;20279;-74
2022/10/13 01:34:59;;;;;;;11.70;9.77;;;;;;;13.55;nan;100002.97;4997590;28;20210;-74
2022/10/13 01:37:31;;;;;;;11.82;8.30;;;;;;;13.58;nan;100000.94;5000091;28;20247;-74
2022/10/13 01:40:09;;;;;;;10.60;8.82;;;;;;;13.58;nan;99998.31;4999296;28;20212;-75
2022/10/13 01:42:56;;;;;;;8.60;7.03;;;;;;;13.56;nan;99997.59;4993258;28;20201;-75
2022/10/13 01:45:29;;;;;;;12.98;7.00;;;;;;;13.52;nan;99992.63;4998461;28;20249;-74
2022/10/13 01:47:57;;;;;;;8.00;6.53;;;;;;;13.45;nan;99998.34;4997353;28;21426;-74
2022/10/13 01:50:22;;;;;;;7.97;5.20;;;;;;;13.41;nan;99998.66;4999807;28;20205;-74
2022/10/13 01:52:49;;;;;;;7.50;5.20;;;;;;;13.32;nan;100005.41;4995140;28;20219;-74
2022/10/13 01:55:15;;;;;;;5.93;5.43;;;;;;;13.23;nan;100000.72;4997091;28;20212;-74
2022/10/13 01:57:42;;;;;;;5.30;4.80;;;;;;;13.15;nan;100008.31;4999083;28;20222;-74
2022/10/13 02:00:10;;;;;;;6.50;5.90;;;;;;;13.05;nan;100006.31;4999776;28;20206;-74
2022/10/13 02:03:05;;;;;;;8.57;6.28;;;;;;;12.97;nan;100000.72;4993282;28;20206;-74
2022/10/13 02:06:06;;;;;;;7.63;5.80;;;;;;;12.91;nan;100001.13;5001166;28;20202;-74
2022/10/13 02:08:58;;;;;;;5.70;5.13;;;;;;;12.89;nan;100005.66;4996396;28;20207;-74
2022/10/13 02:11:24;;;;;;;8.05;6.32;;;;;;;12.87;nan;100007.53;4999275;28;20307;-74
2022/10/13 02:14:16;;;;;;;8.60;6.33;;;;;;;12.86;nan;100005.88;4992908;28;20508;-74
2022/10/13 02:16:45;;;;;;;8.35;7.55;;;;;;;12.83;nan;100004.28;4989880;28;20481;-74
2022/10/13 02:19:13;;;;;;;11.05;6.50;;;;;;;12.81;nan;100008.78;4999594;28;20198;-74
2022/10/13 02:21:40;;;;;;;8.38;7.10;;;;;;;12.80;nan;100006.28;5002027;28;20702;-74
2022/10/13 02:24:06;;;;;;;7.13;6.30;;;;;;;12.81;nan;100010.59;4998766;28;20217;-74
2022/10/13 02:26:33;;;;;;;11.50;7.10;;;;;;;12.80;nan;100007.13;5000426;28;20325;-74
2022/10/13 02:29:22;;;;;;;7.20;5.90;;;;;;;12.76;nan;100005.63;5001493;28;20198;-74
2022/10/13 02:31:48;;;;;;;8.27;6.70;;;;;;;12.74;nan;100004.03;5002517;28;20221;-74
2022/10/13 02:34:14;;;;;;;12.40;7.03;;;;;;;12.69;nan;100008.75;5000222;28;20207;-74
2022/10/13 02:36:40;;;;;;;9.75;7.88;;;;;;;12.62;nan;100005.69;5002012;28;20309;-74
2022/10/13 02:39:07;;;;;;;10.37;7.43;;;;;;;12.57;nan;99998.09;5001349;28;20291;-74
2022/10/13 02:41:32;;;;;;;10.32;7.30;;;;;;;12.55;nan;99993.84;5000754;28;20261;-74
2022/10/13 02:43:58;;;;;;;12.97;8.70;;;;;;;12.52;nan;99994.91;5002356;28;20587;-74
2022/10/13 02:46:31;;;;;;;10.23;7.22;;;;;;;12.48;nan;99995.22;5002211;28;20267;-74
2022/10/13 02:48:57;;;;;;;14.27;8.50;;;;;;;12.48;nan;99990.78;5000095;28;20663;-74
2022/10/13 02:51:24;;;;;;;9.63;8.63;;;;;;;12.49;nan;99989.00;5002595;28;20231;-74
2022/10/13 02:53:50;;;;;;;17.60;9.27;;;;;;;12.48;nan;99988.16;4997276;28;20201;-74
2022/10/13 02:56:15;;;;;;;7.23;6.23;;;;;;;12.46;nan;99990.03;5002834;28;20750;-74
2022/10/13 02:58:41;;;;;;;9.87;7.33;;;;;;;12.41;nan;99981.59;4999575;28;20214;-74
2022/10/13 03:01:08;;;;;;;9.30;7.77;;;;;;;12.39;nan;99981.72;5000513;28;20198;-74
2022/10/13 03:03:35;;;;;;;10.00;8.57;;;;;;;12.37;nan;99974.84;4996144;28;20660;-74
2022/10/13 03:06:00;;;;;;;10.35;8.60;;;;;;;12.38;nan;99981.78;4998828;28;20887;-74
2022/10/13 03:08:27;;;;;;;11.20;7.03;;;;;;;12.39;nan;99975.56;5000992;28;20260;-74
2022/10/13 03:10:53;;;;;;;9.10;8.20;;;;;;;12.41;nan;99981.59;5000533;28;20227;-74
2022/10/13 03:13:18;;;;;;;10.10;7.13;;;;;;;12.43;nan;99971.81;4998699;28;20308;-74
2022/10/13 03:15:45;;;;;;;10.43;6.03;;;;;;;12.42;nan;99985.06;4998278;28;20601;-74
2022/10/13 03:18:10;;;;;;;9.18;7.22;;;;;;;12.42;nan;99982.44;4998720;28;20254;-74
2022/10/13 03:20:35;;;;;;;10.50;7.30;;;;;;;12.41;nan;99976.31;5003674;28;20252;-74
2022/10/13 03:23:01;;;;;;;10.47;6.90;;;;;;;12.40;nan;99985.19;5001203;28;20202;-74
2022/10/13 03:25:27;;;;;;;11.73;7.70;;;;;;;12.38;nan;99979.16;5003014;28;20245;-74
2022/10/13 03:27:55;;;;;;;10.45;7.75;;;;;;;12.33;nan;99978.59;5000194;28;20377;-74
2022/10/13 03:30:20;;;;;;;7.90;6.80;;;;;;;12.26;nan;99972.03;4999110;28;20303;-74
2022/10/13 03:32:46;;;;;;;9.60;8.10;;;;;;;12.21;nan;99963.63;5001440;28;20201;-74
2022/10/13 03:35:11;;;;;;;9.87;6.27;;;;;;;12.18;nan;99954.97;4997852;28;20212;-74
2022/10/13 03:37:37;;;;;;;7.23;6.20;;;;;;;12.13;nan;99958.84;5002444;28;20241;-74
2022/10/13 03:40:03;;;;;;;8.23;7.00;;;;;;;12.12;nan;99962.41;4993728;28;20205;-74
2022/10/13 03:42:28;;;;;;;43.77;7.77;;;;;;;12.11;nan;99969.47;4994476;28;20267;-74
2022/10/13 03:44:54;;;;;;;10.30;8.10;;;;;;;12.08;nan;99953.88;4994803;28;20471;-75
2022/10/13 03:47:19;;;;;;;11.40;7.43;;;;;;;12.05;nan;99951.44;4996968;28;20213;-74
2022/10/13 03:49:45;;;;;;;11.20;6.60;;;;;;;12.00;nan;99953.50;4999234;28;20575;-74
2022/10/13 03:52:10;;;;;;;10.17;7.07;;;;;;;12.00;nan;99960.56;5000723;28;20268;-74
2022/10/13 03:54:35;;;;;;;7.90;6.60;;;;;;;12.02;nan;99963.97;4997318;28;20219;-74
2022/10/13 03:57:01;;;;;;;10.87;7.10;;;;;;;12.03;nan;99957.75;5000769;28;20228;-74
2022/10/13 03:59:28;;;;;;;8.60;7.70;;;;;;;12.01;nan;99955.19;5000023;28;20213;-75
2022/10/13 04:01:54;;;;;;;17.42;12.40;;;;;;;12.00;nan;99958.78;4999838;28;20220;-74
2022/10/13 04:04:19;;;;;;;14.47;11.27;;;;;;;11.99;nan;99965.00;4999286;28;20898;-74
2022/10/13 04:06:47;;;;;;;14.38;11.57;;;;;;;12.01;nan;99967.50;4997358;28;20289;-74
2022/10/13 04:09:12;;;;;;;13.50;11.47;;;;;;;12.03;nan;99963.84;5000623;28;20232;-74
2022/10/13 04:11:38;;;;;;;14.13;9.00;;;;;;;12.06;nan;99961.00;4999911;28;20714;-74
2022/10/13 04:14:03;;;;;;;11.60;8.47;;;;;;;12.07;nan;99965.34;4999211;28;20246;-75
2022/10/13 04:16:30;;;;;;;11.67;10.13;;;;;;;12.09;nan;99963.44;4998853;28;20230;-74
2022/10/13 04:19:03;;;;;;;16.02;12.05;;;;;;;12.09;nan;99973.97;4997789;28;20292;-74
2022/10/13 04:21:31;;;;;;;13.13;10.02;;;;;;;12.07;nan;99973.25;5014808;28;20205;-75
2022/10/13 04:23:58;;;;;;;9.13;8.07;;;;;;;12.01;nan;99960.44;4999294;28;20209;-74
2022/10/13 04:26:25;;;;;;;10.73;7.43;;;;;;;11.95;nan;99956.44;5001446;28;20230;-75
2022/10/13 04:28:52;;;;;;;10.27;7.22;;;;;;;11.89;nan;99954.19;5001795;28;20696;-75
2022/10/13 04:31:20;;;;;;;10.05;7.70;;;;;;;11.89;nan;99950.72;5001535;28;20787;-74
2022/10/13 04:33:46;;;;;;;14.93;8.65;;;;;;;11.90;nan;99953.25;5001439;28;20225;-74
2022/10/13 04:36:13;;;;;;;11.17;7.60;;;;;;;11.95;nan;99952.97;4999633;28;20213;-75
2022/10/13 04:38:39;;;;;;;17.75;9.88;;;;;;;11.97;nan;99948.44;5000819;28;20478;-75
2022/10/13 04:41:06;;;;;;;12.15;10.35;;;;;;;11.95;nan;99953.78;5010154;22;20674;-77
2022/10/13 04:43:33;;;;;;;11.65;9.00;;;;;;;11.90;nan;99955.88;4978655;28;21449;-77
2022/10/13 04:46:05;;;;;;;20.48;11.40;;;;;;;11.85;nan;99946.53;4993807;28;20210;-77
2022/10/13 04:48:31;;;;;;;13.63;9.98;;;;;;;11.82;nan;99947.59;4993560;28;20318;-77
2022/10/13 04:51:11;;;;;;;15.77;10.43;;;;;;;11.80;nan;99946.00;4993522;28;20324;-77
2022/10/13 04:53:38;;;;;;;15.25;11.15;;;;;;;11.78;nan;99934.75;4996616;28;20236;-80
2022/10/13 04:56:09;;;;;;;12.55;9.65;;;;;;;11.78;nan;99935.56;4996712;28;20324;-80
2022/10/13 04:58:35;;;;;;;18.80;10.95;;;;;;;11.79;nan;99937.25;4996244;28;20206;-80
2022/10/13 05:01:02;;;;;;;14.63;11.13;;;;;;;11.82;nan;99936.22;4997343;28;20752;-80
2022/10/13 05:03:28;;;;;;;12.73;11.35;;;;;;;11.85;nan;99928.13;4996712;28;20296;-80
2022/10/13 05:05:53;;;;;;;12.77;9.60;;;;;;;11.88;nan;99938.47;4993749;28;20207;-80
2022/10/13 05:08:19;;;;;;;16.80;10.43;;;;;;;11.89;nan;99934.94;4993656;28;20455;-80
2022/10/13 05:10:59;;;;;;;12.80;9.10;;;;;;;11.88;nan;99946.38;4994750;28;20661;-80
2022/10/13 05:13:26;;;;;;;12.35;8.60;;;;;;;11.83;nan;99943.19;4995878;28;20211;-80
2022/10/13 05:15:56;;;;;;;10.90;7.70;;;;;;;11.75;nan;99946.31;4992936;28;20199;-80
2022/10/13 05:18:21;;;;;;;9.03;7.07;;;;;;;11.65;nan;99950.44;4996294;28;20561;-80
2022/10/13 05:20:47;;;;;;;13.00;9.30;;;;;;;11.57;nan;99947.44;4995804;28;20242;-80
2022/10/13 05:23:13;;;;;;;12.53;9.47;;;;;;;11.54;nan;99943.22;4997018;28;20208;-80
2022/10/13 05:25:39;;;;;;;14.05;7.18;;;;;;;11.54;nan;99934.50;4996094;28;20218;-80
2022/10/13 05:28:07;;;;;;;9.80;8.68;;;;;;;11.55;nan;99934.38;4998033;28;20211;-80
2022/10/13 05:30:33;;;;;;;9.30;8.15;;;;;;;11.58;nan;99933.34;4994158;28;20773;-80
2022/10/13 05:32:59;;;;;;;9.55;8.57;;;;;;;11.61;nan;99933.16;4995561;28;20537;-80
2022/10/13 05:35:26;;;;;;;16.43;10.10;;;;;;;11.65;nan;99938.13;4995377;28;20281;-80
2022/10/13 05:37:51;;;;;;;13.85;10.05;;;;;;;11.68;nan;99935.31;4993644;28;20813;-80
2022/10/13 05:40:17;;;;;;;16.87;11.27;;;;;;;11.70;nan;99937.84;4996534;28;20239;-80
2022/10/13 05:42:42;;;;;;;13.20;10.07;;;;;;;11.72;nan;99939.44;4994955;28;20222;-80
2022/10/13 05:45:09;;;;;;;16.83;12.70;;;;;;;11.75;nan;99941.03;4991784;28;20217;-80
2022/10/13 05:47:35;;;;;;;15.93;12.32;;;;;;;11.80;nan;99944.22;4991167;28;20455;-80
2022/10/13 05:50:01;;;;;;;13.30;11.10;;;;;;;11.83;nan;99951.09;4990242;28;20226;-80
2022/10/13 05:52:28;;;;;;;14.40;12.17;;;;;;;11.89;nan;99950.72;4991820;28;20223;-80
2022/10/13 05:54:57;;;;;;;18.80;14.05;;;;;;;11.92;nan;99950.53;4973701;28;20296;-80
2022/10/13 05:57:39;;;;;;;20.80;12.68;;;;;;;11.95;nan;99951.16;4992894;28;20682;-80
2022/10/13 06:00:16;;;;;;;18.60;12.93;;;;;;;11.95;nan;99937.16;4999563;28;20226;-80
2022/10/13 06:03:13;;;;;;;15.15;11.55;;;;;;;11.97;nan;99937.91;4997978;28;20217;-80
2022/10/13 06:05:46;;;;;;;17.08;11.98;;;;;;;12.00;nan;99935.06;4998275;28;20644;-80
2022/10/13 06:08:12;;;;;;;26.65;12.32;;;;;;;12.03;nan;99926.97;4994433;28;20224;-80
2022/10/13 06:10:39;;;;;;;20.83;12.77;;;;;;;12.05;nan;99933.00;4997163;28;20220;-80
2022/10/13 06:13:04;;;;;;;14.75;12.25;;;;;;;12.10;nan;99933.56;4994606;28;20225;-80
2022/10/13 06:15:30;;;;;;;17.97;13.17;;;;;;;12.15;nan;99930.59;4999430;28;20418;-80
2022/10/13 06:17:56;;;;;;;17.23;11.80;;;;;;;12.18;nan;99933.91;4996884;28;20196;-80
2022/10/13 06:20:21;;;;;;;14.73;10.50;;;;;;;12.22;nan;99934.53;5002188;28;20227;-80
2022/10/13 06:22:49;;;;;;;20.33;13.70;;;;;;;12.26;nan;99932.53;4999329;28;20289;-80
2022/10/13 06:25:14;;;;;;;24.95;12.75;;;;;;;12.28;nan;99926.22;4996738;28;20298;-80
2022/10/13 06:27:40;;;;;;;17.83;12.47;;;;;;;12.31;nan;99933.94;4996578;28;20292;-83
2022/10/13 06:30:06;;;;;;;17.37;12.90;;;;;;;12.35;nan;99937.22;4998621;28;20259;-83
2022/10/13 06:32:31;;;;;;;23.23;13.50;;;;;;;12.39;nan;99936.06;4999258;28;20238;-83
2022/10/13 06:34:57;;;;;;;24.50;12.23;;;;;;;12.45;nan;99940.94;4999195;28;20285;-83
2022/10/13 06:37:22;;;;;;;19.80;12.30;;;;;;;12.48;nan;99946.00;4996873;28;20209;-83
2022/10/13 06:39:48;;;;;;;18.17;13.47;;;;;;;12.51;nan;99934.41;5000913;28;20250;-81
2022/10/13 06:42:13;;;;;;;15.43;11.33;;;;;;;12.51;nan;99937.88;4999390;28;20207;-81
2022/10/13 06:44:41;;;;;;;13.45;9.35;;;;;;;12.53;nan;99948.31;4981391;28;20206;-81
2022/10/13 06:47:06;;;;;;;13.47;9.93;;;;;;;12.56;nan;99941.06;5004749;28;20207;-81
2022/10/13 06:49:32;;;;;;;21.73;8.93;;;;;;;12.60;nan;99939.91;4980981;28;20206;-81
2022/10/13 06:51:58;;;;;;;13.17;10.10;;;;;;;12.63;nan;99942.31;5001057;28;20502;-81
2022/10/13 06:54:23;;;;;;;12.83;9.23;;;;;;;12.68;nan;99933.28;5000244;28;20205;-81
2022/10/13 06:56:50;;;;;;;12.53;9.43;;;;;;;12.70;nan;99932.22;5002682;28;20207;-82
2022/10/13 06:59:15;;;;;;;15.15;8.85;;;;;;;12.69;nan;99929.69;5000973;28;20278;-82
2022/10/13 07:01:44;;;;;;;13.25;9.70;;;;;;;12.67;nan;99929.81;4985371;28;21227;-82
2022/10/13 07:04:11;;;;;;;10.80;8.90;;;;;;;12.68;nan;99915.66;5000852;28;20685;-82
2022/10/13 07:06:36;;;;;;;13.03;10.27;;;;;;;12.66;nan;99922.81;4999241;28;20222;-82
2022/10/13 07:09:04;;;;;;;14.63;10.30;;;;;;;12.65;nan;99922.94;5000943;28;20468;-82
2022/10/13 07:11:29;;;;;;;12.63;9.85;;;;;;;12.70;nan;99931.41;4984844;28;20262;-82
2022/10/13 07:13:58;;;;;;;12.05;8.68;;;;;;;12.73;nan;99920.63;4999739;28;20223;-82
2022/10/13 07:16:23;;;;;;;10.67;8.77;;;;;;;12.79;nan;99917.59;5003737;28;20213;-82
2022/10/13 07:18:49;;;;;;;17.90;11.07;;;;;;;12.81;nan;99921.81;5002520;28;20198;-81
2022/10/13 07:21:15;;;;;;;16.35;11.05;;;;;;;12.86;nan;99934.69;5003518;28;20224;-82
2022/10/13 07:23:40;;;;;;;17.60;10.57;;;;;;;12.87;nan;99931.09;5000814;28;20236;-82
2022/10/13 07:26:11;;;;;;;16.80;11.40;;;;;;;12.88;nan;99937.19;5008716;28;20257;-82
2022/10/13 07:28:37;;;;;;;12.48;9.95;;;;;;;12.90;nan;99933.50;5008514;28;20209;-83
2022/10/13 07:31:12;;;;;;;15.88;11.82;;;;;;;12.90;nan;99930.88;5008291;28;20678;-82
2022/10/13 07:33:39;;;;;;;12.90;11.55;;;;;;;12.94;nan;99936.81;5008947;28;20264;-81
2022/10/13 07:36:05;;;;;;;18.73;14.45;;;;;;;12.97;nan;99920.75;5008906;28;20205;-82
2022/10/13 07:38:30;;;;;;;21.00;14.20;;;;;;;13.00;nan;99923.19;5007124;28;20225;-82
2022/10/13 07:40:59;;;;;;;19.67;12.93;;;;;;;13.03;nan;99926.44;5010613;28;20576;-81
2022/10/13 07:43:25;;;;;;;14.68;11.30;;;;;;;13.09;nan;99924.34;4992593;28;20206;-82
2022/10/13 07:45:50;;;;;;;23.37;13.97;;;;;;;13.16;nan;99920.34;5009783;28;20189;-81
2022/10/13 07:48:18;;;;;;;20.98;13.68;;;;;;;13.22;nan;99925.19;5009175;28;20177;-82
2022/10/13 07:50:44;;;;;;;17.90;13.30;;;;;;;13.34;nan;99929.66;5009888;28;20282;-82
2022/10/13 07:53:09;;;;;;;28.30;13.67;;;;;;;13.43;nan;99921.06;5010303;28;20215;-82
2022/10/13 07:55:35;;;;;;;17.00;12.63;;;;;;;13.57;nan;99920.09;5012157;28;20191;-82
2022/10/13 07:58:02;;;;;;;17.48;12.10;;;;;;;13.71;nan;99916.47;5010276;28;20200;-82
2022/10/13 08:00:31;;;;;;;15.07;11.60;;;;;;;13.86;nan;99918.00;5012332;28;20804;-82
2022/10/13 08:02:56;;;;;;;20.90;13.23;;;;;;;14.04;nan;99918.47;5004888;28;20206;-82
2022/10/13 08:05:22;;;;;;;16.47;11.90;;;;;;;14.20;nan;99917.34;5004944;28;20287;-82
2022/10/13 08:07:47;;;;;;;11.50;9.53;;;;;;;14.32;nan;99919.94;5003833;28;20194;-83
2022/10/13 08:10:13;;;;;;;15.00;10.43;;;;;;;14.43;nan;99913.00;5001414;28;20282;-82
2022/10/13 08:12:39;;;;;;;19.57;13.63;;;;;;;14.54;nan;99918.34;4999405;28;20235;-82
2022/10/13 08:15:06;;;;;;;17.67;12.07;;;;;;;14.64;nan;99922.00;5002312;28;20237;-82
2022/10/13 08:17:31;;;;;;;16.60;12.53;;;;;;;14.70;nan;99920.69;5002925;28;20291;-82
2022/10/13 08:19:57;;;;;;;21.00;14.30;;;;;;;14.73;nan;99923.09;5002989;28;20533;-82
2022/10/13 08:22:26;;;;;;;18.63;13.48;;;;;;;14.73;nan;99923.94;5004143;28;20196;-83
2022/10/13 08:24:51;;;;;;;16.08;13.52;;;;;;;14.73;nan;99926.56;5002944;28;20778;-82
2022/10/13 08:27:21;;;;;;;22.90;15.67;;;;;;;14.74;nan;99917.69;5003302;28;20202;-83
2022/10/13 08:29:47;;;;;;;20.83;17.02;;;;;;;14.83;nan;99916.16;5004855;28;20493;-83
2022/10/13 08:32:12;;;;;;;24.10;17.90;;;;;;;14.92;nan;99914.59;5007068;28;20233;-82
2022/10/13 08:34:38;;;;;;;22.00;15.70;;;;;;;15.09;nan;99906.19;5004237;28;20202;-83
2022/10/13 08:37:03;;;;;;;24.23;16.50;;;;;;;15.29;nan;99906.47;5007010;28;20211;-83
2022/10/13 08:39:29;;;;;;;26.97;18.10;;;;;;;15.47;nan;99903.22;5003718;28;20217;-83
2022/10/13 08:41:56;;;;;;;20.30;14.70;;;;;;;15.63;nan;99905.44;4988200;28;20215;-82
2022/10/13 08:44:37;;;;;;;25.58;14.77;;;;;;;15.62;nan;99900.28;5001150;28;20204;-81
2022/10/13 08:47:23;;;;;;;22.88;17.48;;;;;;;15.65;nan;99894.75;4998107;28;20216;-80
2022/10/13 08:49:49;;;;;;;21.92;14.38;;;;;;;15.62;nan;99893.19;5000570;28;20228;-83
2022/10/13 08:52:24;;;;;;;19.23;13.33;;;;;;;15.51;nan;99900.31;5008132;28;20258;-83
2022/10/13 08:54:52;;;;;;;18.00;13.70;;;;;;;15.36;nan;99897.88;5004430;28;20535;-83
2022/10/13 08:57:18;;;;;;;18.63;14.13;;;;;;;15.22;nan;99891.03;5007320;28;20187;-83
2022/10/13 08:59:44;;;;;;;18.37;14.30;;;;;;;15.12;nan;99894.53;5003875;28;20691;-83
2022/10/13 09:02:30;;;;;;;20.30;13.03;;;;;;;15.05;nan;99886.25;5004875;28;20207;-83
2022/10/13 09:04:57;;;;;;;18.40;12.93;;;;;;;15.00;nan;99888.41;5003433;28;21339;-83
2022/10/13 09:07:31;;;;;;;20.00;12.00;;;;;;;14.99;nan;99889.38;5007648;28;20197;-83
2022/10/13 09:09:57;;;;;;;16.20;13.75;;;;;;;15.01;nan;99892.72;5007797;28;20221;-83
2022/10/13 09:12:24;;;;;;;22.93;15.03;;;;;;;15.04;nan;99887.19;5002439;28;20245;-82
2022/10/13 09:15:04;;;;;;;18.85;14.48;;;;;;;15.09;nan;99889.47;5004692;28;20481;-83
2022/10/13 09:17:31;;;;;;;17.38;12.15;;;;;;;15.13;nan;99896.22;5006211;28;20219;-82
2022/10/13 09:20:05;;;;;;;18.20;12.90;;;;;;;15.14;nan;99901.38;5006666;28;20218;-83
2022/10/13 09:22:34;;;;;;;17.40;13.75;;;;;;;15.16;nan;99907.41;5005546;28;20259;-83
2022/10/13 09:25:05;;;;;;;18.38;12.63;;;;;;;15.21;nan;99889.38;5008515;28;20846;-83
2022/10/13 09:27:57;;;;;;;15.60;11.80;;;;;;;15.26;nan;99897.78;5008107;28;20265;-83
2022/10/13 09:30:27;;;;;;;17.40;11.65;;;;;;;15.33;nan;99897.31;5009119;28;20799;-82
2022/10/13 09:33:03;;;;;;;18.38;14.13;;;;;;;15.36;nan;99899.69;5009704;28;20275;-83
2022/10/13 09:35:33;;;;;;;18.40;12.10;;;;;;;15.35;nan;99900.69;5011191;28;20253;-83
2022/10/13 09:38:04;;;;;;;15.85;12.70;;;;;;;15.39;nan;99894.16;5006567;28;20183;-83
2022/10/13 09:40:31;;;;;;;18.00;11.30;;;;;;;15.47;nan;99894.41;5009918;28;20230;-83
2022/10/13 09:42:59;;;;;;;21.15;12.27;;;;;;;15.56;nan;99885.75;5009819;28;20598;-83
2022/10/13 09:45:26;;;;;;;15.63;10.75;;;;;;;15.64;nan;99877.19;5014248;28;20270;-83
2022/10/13 09:48:06;;;;;;;12.88;10.32;;;;;;;15.69;nan;99877.69;5010073;28;20195;-83
2022/10/13 09:50:34;;;;;;;14.05;10.90;;;;;;;15.77;nan;99875.25;5011553;28;20760;-84
2022/10/13 09:53:20;;;;;;;15.00;11.45;;;;;;;15.88;nan;99882.34;5014356;28;20543;-83
2022/10/13 09:55:48;;;;;;;15.82;11.40;;;;;;;16.01;nan;99876.84;5011622;28;20191;-83
2022/10/13 09:58:25;;;;;;;19.15;12.57;;;;;;;16.14;nan;99883.66;5008343;28;20225;-84
2022/10/13 10:00:53;;;;;;;17.83;11.98;;;;;;;16.38;nan;99882.63;5011977;28;20659;-83
2022/10/13 10:03:27;;;;;;;15.85;12.55;;;;;;;16.67;nan;99884.63;5011297;28;20179;-84
2022/10/13 10:05:59;;;;;;;19.65;12.45;;;;;;;16.89;nan;99883.69;5012281;28;20465;-82
2022/10/13 10:08:32;;;;;;;13.98;12.45;;;;;;;17.01;nan;99878.16;5011121;28;20179;-82
2022/10/13 10:11:02;;;;;;;15.48;12.32;;;;;;;17.06;nan;99890.19;5011609;28;20286;-82
2022/10/13 10:13:27;;;;;;;17.02;12.48;;;;;;;17.09;nan;99884.59;5013060;28;20188;-82
2022/10/13 10:16:09;;;;;;;16.00;12.20;;;;;;;17.12;nan;99881.69;5012710;28;20200;-82
2022/10/13 10:18:59;;;;;;;14.35;10.65;;;;;;;17.20;nan;99884.50;5012048;28;20198;-82
2022/10/13 10:21:42;;;;;;;16.42;10.48;;;;;;;17.37;nan;99889.22;5014674;28;20196;-82
2022/10/13 10:24:24;;;;;;;15.18;11.13;;;;;;;17.46;nan;99888.38;5014561;28;20197;-82
2022/10/13 10:27:17;;;;;;;19.42;12.45;;;;;;;17.61;nan;99893.34;5016306;28;20197;-82
2022/10/13 10:30:00;;;;;;;17.63;11.75;;;;;;;17.67;nan;99890.13;5012604;28;20228;-83
2022/10/13 10:32:45;;;;;;;19.13;12.10;;;;;;;17.72;nan;99885.25;5014231;28;20228;-82
2022/10/13 10:35:16;;;;;;;20.65;11.63;;;;;;;17.80;nan;99874.81;5014722;28;20197;-83
2022/10/13 10:37:54;;;;;;;18.40;11.80;;;;;;;17.88;nan;99872.31;5014964;28;20958;-83
2022/10/13 10:40:56;;;;;;;15.52;11.73;;;;;;;17.98;nan;99867.00;5015188;28;20249;-82
2022/10/13 10:43:39;;;;;;;15.05;11.05;;;;;;;18.06;nan;99869.78;5007652;23;20243;-75
2022/10/13 10:46:35;;;;;;;17.30;10.63;;;;;;;18.18;nan;99865.19;4973342;28;20191;-75
2022/10/13 10:49:15;;;;;;;15.95;10.15;;;;;;;18.31;nan;99851.63;4974449;28;20199;-75
2022/10/13 10:51:41;;;;;;;14.85;9.63;;;;;;;18.44;nan;99853.97;4984005;28;20293;-75
2022/10/13 10:54:40;;;;;;;14.00;9.20;;;;;;;18.55;nan;99837.84;4982943;28;20319;-75
2022/10/13 10:57:05;;;;;;;14.90;10.07;;;;;;;18.64;nan;99837.00;4982772;28;20237;-75
2022/10/13 10:59:49;;;;;;;11.30;7.70;;;;;;;18.79;nan;99838.25;4982711;28;20833;-75
2022/10/13 11:02:47;;;;;;;10.50;7.93;;;;;;;18.92;nan;99829.94;4981048;28;20206;-74
2022/10/13 11:05:13;;;;;;;14.33;7.83;;;;;;;19.06;nan;99836.59;4974622;28;20966;-75
2022/10/13 11:07:42;;;;;;;7.10;6.10;;;;;;;19.17;nan;99823.13;4982004;28;20537;-75
2022/10/13 11:10:16;;;;;;;8.50;6.90;;;;;;;19.32;nan;99826.09;4982645;28;21212;-75
2022/10/13 11:12:45;;;;;;;9.17;7.03;;;;;;;19.51;nan;99827.81;4980809;28;20487;-75
2022/10/13 11:15:14;;;;;;;12.90;6.40;;;;;;;19.67;nan;99809.38;4980081;28;20462;-76
2022/10/13 11:17:40;;;;;;;5.73;4.50;;;;;;;19.82;nan;99806.16;4980643;28;20775;-76
2022/10/13 11:20:35;;;;;;;8.60;4.77;;;;;;;19.90;nan;99819.56;4981039;28;20546;-77
2022/10/13 11:23:03;;;;;;;10.33;4.83;;;;;;;19.94;nan;99796.97;4971953;28;21589;-76
2022/10/13 11:25:41;;;;;;;6.43;4.37;;;;;;;19.99;nan;99804.50;4977156;28;20516;-76
2022/10/13 11:28:21;;;;;;;6.17;3.70;;;;;;;20.06;nan;99794.88;4981125;28;20471;-76
2022/10/13 11:30:54;;;;;;;10.17;4.70;;;;;;;20.10;nan;99793.59;4985384;28;20438;-76
2022/10/13 11:33:51;;;;;;;4.83;3.57;;;;;;;20.15;nan;99785.97;4982843;28;20520;-76
2022/10/13 11:36:36;;;;;;;6.73;3.97;;;;;;;20.19;nan;99782.00;4979841;28;20518;-75
2022/10/13 11:39:19;;;;;;;5.03;4.53;;;;;;;20.25;nan;99781.41;4980651;28;20611;-76
2022/10/13 11:42:15;;;;;;;5.53;3.97;;;;;;;20.28;nan;99773.06;4983218;28;20549;-76
2022/10/13 11:45:03;;;;;;;9.10;5.37;;;;;;;20.32;nan;99765.59;4979872;28;20455;-76
2022/10/13 11:47:53;;;;;;;7.10;4.70;;;;;;;20.30;nan;99760.41;4983284;28;20451;-76
2022/10/13 11:50:51;;;;;;;10.27;4.00;;;;;;;20.37;nan;99767.78;4982746;28;20478;-76
2022/10/13 11:53:20;;;;;;;5.97;4.90;;;;;;;20.40;nan;99754.13;4983069;28;20581;-76
2022/10/13 11:55:55;;;;;;;6.73;4.20;;;;;;;20.48;nan;99757.69;4978826;28;20544;-76